Time;durP1;ratioP1;P1;durP2;ratioP2;P2;SDS_P1;SDS_P2;PMS_P1;PMS_P2;Temp;Humidity;BMP_temperature;BMP_pressure;BME280_temperature;BME280_humidity;BME280_pressure;Samples;Min_cycle;Max_cycle;Signal;HPM_P1;HPM_P2
2021/12/05 00:24:26;;;;;;;4.75;1.17;;;19.50;56.00;;;;;;6164149;22;92735;-59
2021/12/05 00:27:00;;;;;;;5.18;0.90;;;19.50;56.00;;;;;;6174296;22;93317;-60
2021/12/05 00:29:49;;;;;;;5.93;1.10;;;19.50;56.10;;;;;;6175641;22;92276;-59
2021/12/05 00:35:21;;;;;;;4.95;1.15;;;19.50;56.10;;;;;;6174565;22;92636;-58
2021/12/05 00:46:20;;;;;;;4.95;1.02;;;19.40;56.70;;;;;;6175588;22;92911;-60
2021/12/05 00:53:58;;;;;;;3.28;1.02;;;19.40;56.20;;;;;;6176029;22;92519;-61
2021/12/05 01:04:08;;;;;;;3.75;1.40;;;19.30;56.30;;;;;;6174839;22;93332;-59
2021/12/05 01:06:42;;;;;;;2.72;0.88;;;19.30;56.30;;;;;;6174614;22;92374;-59
2021/12/05 01:16:38;;;;;;;3.95;0.80;;;19.30;56.40;;;;;;6175968;22;92611;-59
2021/12/05 01:19:09;;;;;;;3.03;1.00;;;19.30;56.40;;;;;;6174889;22;93863;-58
2021/12/05 01:21:37;;;;;;;2.67;0.80;;;19.20;56.30;;;;;;6175713;22;92271;-59
2021/12/05 01:34:30;;;;;;;4.28;1.00;;;19.20;56.40;;;;;;6175204;22;92316;-60
2021/12/05 01:37:12;;;;;;;2.92;0.90;;;19.20;56.40;;;;;;6174120;22;92909;-60
2021/12/05 01:50:59;;;;;;;1.88;0.80;;;19.10;56.50;;;;;;6173306;22;92797;-59
2021/12/05 01:53:51;;;;;;;4.43;0.90;;;19.10;56.50;;;;;;6176745;22;93457;-59
2021/12/05 01:56:52;;;;;;;3.10;0.90;;;19.10;56.50;;;;;;6175779;22;92998;-61
2021/12/05 01:59:37;;;;;;;4.10;1.17;;;19.00;56.50;;;;;;6177410;22;92671;-59
2021/12/05 02:43:05;;;;;;;5.82;0.95;;;18.90;56.70;;;;;;6175178;22;91836;-59
2021/12/05 02:45:33;;;;;;;2.63;0.80;;;18.90;56.70;;;;;;6173534;22;96008;-59
2021/12/05 02:47:59;;;;;;;2.65;0.90;;;18.80;56.70;;;;;;6173574;22;92474;-60
2021/12/05 02:50:32;;;;;;;4.70;1.02;;;18.90;56.80;;;;;;6174270;22;93213;-60
2021/12/05 02:53:09;;;;;;;2.20;0.60;;;18.80;56.70;;;;;;6174406;22;92123;-60
2021/12/05 02:55:42;;;;;;;1.50;0.57;;;18.80;56.80;;;;;;6173732;22;92639;-59
2021/12/05 03:01:23;;;;;;;4.30;0.98;;;18.80;56.80;;;;;;6177076;22;92743;-59
2021/12/05 03:03:39;;;;;;;2.40;0.73;;;18.80;57.10;;;;;;6121615;22;1209551;-61
2021/12/05 03:06:17;;;;;;;3.88;0.90;;;18.80;56.90;;;;;;6175915;22;94474;-60
2021/12/05 03:08:45;;;;;;;2.47;0.90;;;18.80;56.90;;;;;;6176610;22;92921;-60
2021/12/05 03:11:11;;;;;;;2.70;0.50;;;18.80;56.90;;;;;;6176524;22;92650;-60
2021/12/05 03:13:40;;;;;;;2.78;0.93;;;18.70;56.90;;;;;;6176625;22;92844;-62
2021/12/05 03:16:07;;;;;;;1.92;0.90;;;18.70;56.90;;;;;;6176655;22;94080;-60
2021/12/05 03:18:33;;;;;;;2.88;1.17;;;18.70;56.90;;;;;;6177323;22;94643;-60
2021/12/05 03:21:01;;;;;;;1.23;0.50;;;18.70;56.90;;;;;;6178058;22;91986;-61
2021/12/05 03:23:27;;;;;;;2.60;0.68;;;18.70;56.90;;;;;;6178089;22;92554;-61
2021/12/05 03:25:53;;;;;;;1.83;0.60;;;18.70;56.90;;;;;;6177513;22;93125;-60
2021/12/05 03:28:19;;;;;;;1.00;0.52;;;18.70;57.00;;;;;;6176127;22;92844;-59
2021/12/05 03:30:45;;;;;;;2.55;0.50;;;18.70;57.00;;;;;;6176633;22;92936;-61
2021/12/05 03:33:11;;;;;;;1.58;0.60;;;18.60;57.00;;;;;;6176560;22;91294;-60
2021/12/05 03:35:36;;;;;;;2.05;0.80;;;18.70;57.00;;;;;;6176269;22;92802;-59
2021/12/05 03:38:04;;;;;;;4.40;0.70;;;18.60;57.00;;;;;;6175830;22;92807;-60
2021/12/05 03:40:32;;;;;;;2.17;0.55;;;18.60;57.00;;;;;;6175565;22;94020;-58
2021/12/05 03:43:03;;;;;;;1.85;0.60;;;18.60;57.00;;;;;;6175956;22;92088;-61
2021/12/05 03:45:33;;;;;;;1.63;0.70;;;18.60;57.10;;;;;;6175697;22;93146;-61
2021/12/05 03:47:59;;;;;;;2.38;0.70;;;18.60;57.00;;;;;;6175469;22;92893;-60
2021/12/05 03:50:26;;;;;;;2.80;0.77;;;18.60;57.10;;;;;;6176272;22;92674;-61
2021/12/05 03:52:52;;;;;;;2.75;0.90;;;18.60;57.10;;;;;;6176007;22;92888;-60
2021/12/05 03:55:19;;;;;;;1.90;0.77;;;18.60;57.10;;;;;;6175937;22;93147;-60
2021/12/05 03:57:45;;;;;;;1.77;0.70;;;18.60;57.10;;;;;;6177073;22;93449;-60
2021/12/05 04:00:19;;;;;;;3.60;0.95;;;18.60;57.10;;;;;;6176564;22;92214;-61
2021/12/05 04:02:48;;;;;;;1.55;0.70;;;18.50;57.10;;;;;;6176191;22;92096;-66
2021/12/05 04:05:14;;;;;;;1.25;0.70;;;18.50;57.10;;;;;;6174991;22;93652;-60
2021/12/05 04:07:40;;;;;;;0.75;0.50;;;18.50;57.10;;;;;;6175369;22;94230;-61
2021/12/05 04:10:06;;;;;;;2.03;0.70;;;18.50;57.10;;;;;;6174974;22;92606;-60
2021/12/05 04:12:32;;;;;;;1.55;0.73;;;18.50;57.10;;;;;;6175067;22;92512;-59
2021/12/05 04:14:58;;;;;;;1.55;0.68;;;18.50;57.20;;;;;;6175598;22;93154;-60
2021/12/05 04:17:24;;;;;;;1.48;0.75;;;18.50;57.20;;;;;;6176308;22;92909;-60
2021/12/05 04:19:51;;;;;;;2.50;0.73;;;18.40;57.20;;;;;;6176273;22;92878;-61
2021/12/05 04:22:16;;;;;;;1.60;0.40;;;18.40;57.20;;;;;;6175295;22;92585;-60
2021/12/05 04:24:44;;;;;;;1.88;0.60;;;18.50;57.70;;;;;;6176185;22;93417;-60
2021/12/05 04:27:10;;;;;;;2.95;0.73;;;18.50;57.30;;;;;;6176296;22;92647;-60
2021/12/05 04:29:37;;;;;;;1.20;0.57;;;18.40;57.20;;;;;;6176374;22;93860;-60
2021/12/05 04:32:04;;;;;;;1.27;0.45;;;18.50;57.30;;;;;;6176750;22;92943;-59
2021/12/05 04:34:30;;;;;;;2.47;1.08;;;18.40;57.20;;;;;;6175355;22;93100;-60
2021/12/05 04:36:56;;;;;;;1.58;0.55;;;18.40;57.30;;;;;;6174872;22;95948;-60
2021/12/05 04:39:25;;;;;;;1.85;0.65;;;18.40;57.20;;;;;;6175805;22;92134;-60
2021/12/05 04:41:50;;;;;;;1.50;0.50;;;18.40;57.30;;;;;;6176208;22;92594;-60
2021/12/05 04:44:17;;;;;;;1.55;0.50;;;18.40;57.30;;;;;;6174757;22;93063;-58
2021/12/05 04:46:43;;;;;;;1.40;0.70;;;18.40;57.30;;;;;;6175646;22;92827;-59
2021/12/05 04:49:10;;;;;;;3.60;0.50;;;18.40;57.30;;;;;;6175162;22;92899;-60
2021/12/05 04:51:39;;;;;;;3.08;0.70;;;18.40;57.30;;;;;;6173273;22;92459;-59
2021/12/05 04:54:07;;;;;;;2.97;0.70;;;18.40;57.30;;;;;;6174679;22;93892;-58
2021/12/05 04:56:34;;;;;;;3.15;0.70;;;18.30;57.30;;;;;;6174021;22;96683;-59
2021/12/05 04:59:01;;;;;;;1.98;0.70;;;18.30;57.30;;;;;;6176190;22;93011;-59
2021/12/05 05:01:27;;;;;;;2.85;0.60;;;18.30;57.30;;;;;;6175671;22;91986;-61
2021/12/05 05:03:54;;;;;;;1.05;0.50;;;18.30;57.30;;;;;;6174393;22;93751;-60
2021/12/05 05:06:22;;;;;;;1.33;0.52;;;18.30;57.40;;;;;;6174658;22;92857;-59
2021/12/05 05:08:52;;;;;;;2.20;0.60;;;18.30;57.40;;;;;;6175879;22;93060;-60
2021/12/05 05:11:21;;;;;;;1.02;0.45;;;18.30;57.40;;;;;;6175558;22;92509;-60
2021/12/05 05:13:50;;;;;;;2.10;0.38;;;18.30;57.40;;;;;;6175097;22;92604;-61
2021/12/05 05:16:17;;;;;;;1.13;0.50;;;18.30;57.50;;;;;;6175185;22;92732;-60
2021/12/05 05:40:08;;;;;;;0.43;0.30;;;18.20;57.50;;;;;;6175893;22;92530;-60
2021/12/05 05:50:51;;;;;;;1.30;0.60;;;18.20;57.50;;;;;;6164636;22;92197;-60
2021/12/05 05:53:17;;;;;;;3.40;0.50;;;18.20;57.50;;;;;;6175828;22;92850;-59
2021/12/05 05:55:43;;;;;;;1.17;0.50;;;18.20;57.40;;;;;;6175959;22;93008;-60
2021/12/05 05:58:15;;;;;;;1.73;0.40;;;18.20;57.50;;;;;;6176369;22;93050;-58
2021/12/05 06:01:04;;;;;;;1.42;0.40;;;18.20;57.50;;;;;;6177310;22;92278;-60
2021/12/05 06:03:31;;;;;;;2.10;0.50;;;18.20;57.50;;;;;;6175655;22;92020;-59
2021/12/05 06:06:16;;;;;;;1.45;0.70;;;18.20;57.50;;;;;;6174489;22;93262;-59
2021/12/05 06:08:43;;;;;;;0.68;0.40;;;18.10;57.50;;;;;;6174624;22;95586;-58
2021/12/05 06:11:16;;;;;;;3.80;0.63;;;18.10;57.60;;;;;;6175713;22;93678;-58
2021/12/05 06:13:42;;;;;;;1.53;0.50;;;18.20;57.60;;;;;;6176369;22;92167;-59
2021/12/05 06:16:11;;;;;;;20.05;3.15;;;18.20;57.60;;;;;;6175990;22;93016;-59
2021/12/05 06:18:38;;;;;;;31.80;5.40;;;18.30;57.60;;;;;;6176879;22;92874;-60
2021/12/05 06:21:05;;;;;;;24.25;3.72;;;18.40;57.40;;;;;;6176508;22;92932;-58
2021/12/05 06:23:31;;;;;;;27.55;4.03;;;18.50;57.30;;;;;;6176489;22;92856;-59
2021/12/05 06:25:57;;;;;;;22.10;3.55;;;18.60;57.10;;;;;;6175973;22;93181;-59
2021/12/05 06:28:30;;;;;;;21.40;3.55;;;18.70;56.90;;;;;;6176320;22;91817;-59
2021/12/05 06:31:08;;;;;;;17.15;3.97;;;18.80;56.70;;;;;;6177144;22;92474;-59
2021/12/05 06:40:18;;;;;;;13.18;3.95;;;19.00;57.00;;;;;;6174735;22;93281;-59
2021/12/05 06:42:19;;;;;;;16.70;3.00;;;19.10;57.20;;;;;;6162815;22;92872;-60
2021/12/05 06:47:30;;;;;;;17.10;3.10;;;19.10;57.60;;;;;;6176190;22;93022;-59
2021/12/05 06:50:00;;;;;;;12.32;2.80;;;19.10;57.70;;;;;;6176484;22;93292;-60
2021/12/05 06:52:26;;;;;;;12.95;3.28;;;19.10;57.80;;;;;;6176280;22;92722;-60
2021/12/05 06:54:51;;;;;;;13.23;2.30;;;19.10;57.80;;;;;;6176238;22;92184;-60
2021/12/05 06:57:18;;;;;;;11.40;2.45;;;19.20;57.90;;;;;;6176229;22;93370;-60
2021/12/05 06:59:45;;;;;;;11.38;2.72;;;19.20;57.90;;;;;;6176595;22;92785;-60
2021/12/05 07:02:14;;;;;;;13.73;2.88;;;19.30;58.00;;;;;;6176527;22;93577;-61
2021/12/05 07:07:22;;;;;;;13.25;2.28;;;19.40;57.80;;;;;;6174227;22;92525;-58
2021/12/05 07:09:48;;;;;;;16.05;2.33;;;19.50;57.70;;;;;;6176605;22;93761;-60
2021/12/05 07:20:02;;;;;;;17.88;4.57;;;19.80;57.20;;;;;;6175402;22;91902;-59
2021/12/05 07:22:45;;;;;;;13.85;3.28;;;19.80;57.20;;;;;;6167013;22;92138;-59
2021/12/05 07:25:24;;;;;;;16.52;3.33;;;19.90;57.00;;;;;;6176170;22;92665;-60
2021/12/05 07:44:16;;;;;;;14.35;4.03;;;20.30;55.50;;;;;;6175418;22;92629;-59
2021/12/05 07:46:44;;;;;;;13.73;2.67;;;20.40;55.30;;;;;;6175499;22;91622;-59
2021/12/05 07:49:11;;;;;;;9.23;2.28;;;20.40;55.20;;;;;;6172936;22;94056;-60
2021/12/05 07:51:41;;;;;;;16.08;3.25;;;20.40;55.10;;;;;;6174124;22;93359;-58
2021/12/05 07:57:03;;;;;;;9.82;3.10;;;20.40;54.90;;;;;;6167197;22;92406;-58
2021/12/05 08:15:46;;;;;;;8.90;2.15;;;20.50;54.40;;;;;;6173631;22;92950;-60
2021/12/05 08:18:12;;;;;;;10.05;2.65;;;20.50;54.40;;;;;;6174168;22;92679;-58
2021/12/05 08:20:41;;;;;;;11.07;2.67;;;20.50;54.40;;;;;;6173306;22;95099;-60
2021/12/05 08:23:07;;;;;;;11.75;2.35;;;20.40;54.30;;;;;;6172653;22;96811;-59
2021/12/05 08:25:37;;;;;;;12.18;2.78;;;20.50;54.40;;;;;;6174761;22;93016;-60
2021/12/05 08:28:22;;;;;;;8.98;2.40;;;20.50;54.40;;;;;;6173814;22;92235;-60
2021/12/05 08:30:57;;;;;;;7.13;2.25;;;20.40;54.30;;;;;;6170716;22;92800;-58
2021/12/05 08:33:40;;;;;;;12.13;2.50;;;20.40;54.20;;;;;;6173880;22;92751;-59
2021/12/05 09:08:50;;;;;;;6.28;1.40;;;20.30;53.70;;;;;;6174825;22;92562;-58
2021/12/05 09:30:06;;;;;;;5.68;1.60;;;20.30;53.70;;;;;;6175032;22;92418;-59
2021/12/05 10:08:02;;;;;;;6.57;2.40;;;20.20;55.00;;;;;;6168480;22;93679;-59
2021/12/05 10:13:15;;;;;;;6.07;1.98;;;20.20;55.00;;;;;;6172705;22;92208;-63
2021/12/05 10:15:50;;;;;;;7.53;1.95;;;20.20;55.00;;;;;;6172496;22;92901;-62
2021/12/05 10:27:15;;;;;;;7.20;2.45;;;20.00;54.70;;;;;;6172932;22;91828;-62
2021/12/05 10:36:01;;;;;;;5.20;1.70;;;20.00;54.40;;;;;;6161269;22;93579;-63
2021/12/05 10:38:51;;;;;;;6.03;1.45;;;20.00;54.30;;;;;;6172237;22;92494;-63
2021/12/05 10:41:35;;;;;;;11.93;2.08;;;20.10;54.30;;;;;;6170915;22;95967;-61
2021/12/05 10:44:09;;;;;;;9.13;1.90;;;20.10;54.20;;;;;;6172588;22;92610;-62
2021/12/05 10:46:36;;;;;;;9.30;1.98;;;20.20;54.00;;;;;;6171662;22;92416;-63
2021/12/05 10:49:13;;;;;;;9.30;2.10;;;20.20;53.90;;;;;;6170922;22;92797;-61
2021/12/05 10:51:46;;;;;;;8.10;2.00;;;20.20;53.80;;;;;;6171171;22;94578;-63
2021/12/05 10:54:19;;;;;;;5.70;1.60;;;20.30;53.80;;;;;;6172897;22;96431;-61
2021/12/05 10:56:51;;;;;;;5.30;1.80;;;20.30;53.80;;;;;;6173869;22;92954;-63
2021/12/05 10:59:26;;;;;;;5.80;1.48;;;20.30;53.70;;;;;;6176067;22;92576;-62
2021/12/05 11:02:01;;;;;;;5.75;1.63;;;20.30;53.60;;;;;;6174419;22;96801;-61
2021/12/05 11:04:34;;;;;;;6.82;2.28;;;20.30;53.60;;;;;;6174437;22;97030;-64
2021/12/05 11:07:10;;;;;;;5.70;1.50;;;20.30;53.30;;;;;;6175221;22;92655;-64
2021/12/05 11:09:42;;;;;;;4.82;1.58;;;20.30;53.10;;;;;;6174760;22;92951;-62
2021/12/05 11:12:23;;;;;;;4.88;1.73;;;20.40;53.00;;;;;;6173470;22;94546;-62
2021/12/05 11:14:50;;;;;;;7.47;1.70;;;20.40;52.80;;;;;;6174790;22;95791;-61
2021/12/05 11:17:25;;;;;;;6.97;1.73;;;20.30;52.70;;;;;;6174702;22;93200;-60
2021/12/05 11:19:58;;;;;;;5.50;1.55;;;20.30;52.70;;;;;;6175224;22;92195;-63
2021/12/05 11:22:28;;;;;;;6.83;1.50;;;20.40;52.70;;;;;;6175234;22;95927;-63
2021/12/05 11:25:03;;;;;;;8.40;1.88;;;20.30;52.60;;;;;;6174144;22;94173;-62
2021/12/05 11:27:30;;;;;;;5.93;1.50;;;20.30;52.60;;;;;;6174625;22;93634;-64
2021/12/05 11:30:05;;;;;;;7.15;1.65;;;20.30;52.70;;;;;;6175392;22;92265;-63
2021/12/05 11:32:36;;;;;;;3.55;1.40;;;20.30;52.70;;;;;;6176558;22;92955;-62
2021/12/05 11:35:34;;;;;;;7.70;2.20;;;20.20;52.70;;;;;;6175019;22;94455;-61
2021/12/05 11:38:06;;;;;;;4.05;1.60;;;20.20;52.80;;;;;;6175547;22;92345;-64
2021/12/05 11:40:56;;;;;;;5.05;1.50;;;20.20;52.90;;;;;;6174538;22;92872;-61
2021/12/05 11:43:21;;;;;;;4.68;1.65;;;20.20;53.00;;;;;;6174939;22;94700;-62
2021/12/05 11:45:55;;;;;;;3.63;1.20;;;20.20;53.00;;;;;;6176070;22;92242;-62
2021/12/05 11:48:43;;;;;;;5.32;1.35;;;20.10;53.00;;;;;;6175295;22;92816;-63
2021/12/05 11:51:30;;;;;;;5.18;1.63;;;20.10;53.00;;;;;;6173812;22;92703;-64
2021/12/05 11:54:12;;;;;;;7.43;1.35;;;20.10;53.20;;;;;;6175340;22;93732;-63
2021/12/05 11:56:58;;;;;;;5.30;1.70;;;20.10;53.20;;;;;;6175286;22;93188;-64
2021/12/05 11:59:30;;;;;;;4.45;1.63;;;20.10;53.20;;;;;;6176688;22;92783;-61
2021/12/05 12:02:17;;;;;;;5.10;1.38;;;20.10;53.10;;;;;;6174030;22;92446;-64
2021/12/05 12:05:05;;;;;;;5.88;1.17;;;20.20;53.10;;;;;;6174441;22;92692;-61
2021/12/05 12:07:30;;;;;;;3.28;1.48;;;20.20;53.00;;;;;;6173359;22;94400;-64
2021/12/05 12:10:03;;;;;;;5.07;1.55;;;20.20;52.90;;;;;;6175719;22;92698;-62
2021/12/05 12:12:29;;;;;;;6.35;2.22;;;20.20;52.90;;;;;;6175675;22;92069;-61
2021/12/05 12:14:55;;;;;;;4.95;1.48;;;20.20;52.90;;;;;;6174223;22;94263;-64
2021/12/05 12:17:21;;;;;;;6.50;1.27;;;20.20;52.80;;;;;;6174013;22;95398;-60
2021/12/05 12:19:50;;;;;;;5.10;1.90;;;20.20;52.80;;;;;;6175231;22;92952;-66
2021/12/05 12:22:20;;;;;;;7.38;1.90;;;20.20;52.80;;;;;;6176112;22;92001;-65
2021/12/05 12:24:53;;;;;;;11.07;2.10;;;20.20;52.60;;;;;;6176084;22;93752;-65
2021/12/05 12:27:20;;;;;;;8.87;2.07;;;20.20;52.60;;;;;;6175451;22;92817;-62
2021/12/05 12:29:46;;;;;;;12.73;2.72;;;20.20;52.50;;;;;;6175562;22;92373;-65
2021/12/05 12:34:40;;;;;;;7.90;2.75;;;20.20;52.50;;;;;;6175736;22;93140;-65
2021/12/05 12:37:06;;;;;;;9.55;2.45;;;20.20;52.60;;;;;;6177039;22;92313;-64
2021/12/05 12:39:39;;;;;;;13.43;2.80;;;20.20;52.60;;;;;;6175133;22;92682;-64
2021/12/05 12:42:13;;;;;;;11.27;2.60;;;20.20;52.70;;;;;;6175016;22;93439;-62
2021/12/05 12:45:06;;;;;;;8.50;2.47;;;20.20;52.70;;;;;;6175345;22;94424;-63
2021/12/05 12:47:52;;;;;;;7.33;2.20;;;20.20;52.70;;;;;;6175753;22;93136;-62
2021/12/05 12:50:37;;;;;;;8.95;2.30;;;20.20;52.80;;;;;;6176203;22;93040;-67
2021/12/05 12:53:24;;;;;;;11.13;2.95;;;20.20;52.80;;;;;;6176021;22;92656;-66
2021/12/05 12:55:52;;;;;;;9.82;2.67;;;20.20;52.90;;;;;;6175896;22;92917;-66
2021/12/05 12:58:43;;;;;;;9.55;2.60;;;20.20;52.90;;;;;;6176574;22;92725;-66
2021/12/05 13:01:19;;;;;;;8.95;2.25;;;20.20;52.90;;;;;;6175993;22;92980;-67
2021/12/05 13:12:45;;;;;;;9.82;2.40;;;20.20;53.00;;;;;;6174910;22;93014;-65
2021/12/05 13:15:33;;;;;;;13.13;2.67;;;20.20;53.10;;;;;;6174500;22;92509;-67
2021/12/05 13:18:07;;;;;;;8.25;2.65;;;20.20;53.10;;;;;;6174382;22;92686;-67
2021/12/05 13:20:47;;;;;;;9.68;2.50;;;20.20;53.20;;;;;;6176324;22;92969;-67
2021/12/05 13:23:16;;;;;;;7.50;2.40;;;20.20;53.30;;;;;;6176107;22;92075;-64
2021/12/05 13:26:03;;;;;;;7.00;2.28;;;20.20;53.30;;;;;;6175048;22;92461;-61
2021/12/05 13:28:31;;;;;;;6.60;1.92;;;20.20;53.30;;;;;;6175380;22;92918;-67
2021/12/05 13:30:57;;;;;;;7.88;2.30;;;20.20;53.40;;;;;;6176004;22;92804;-66
2021/12/05 13:33:26;;;;;;;7.05;2.47;;;20.20;53.40;;;;;;6176593;22;92655;-66
2021/12/05 13:35:57;;;;;;;7.20;2.20;;;20.20;53.40;;;;;;6175457;22;92088;-59
2021/12/05 13:38:30;;;;;;;9.57;2.30;;;20.20;53.40;;;;;;6174103;22;93784;-66
2021/12/05 13:41:16;;;;;;;7.35;2.30;;;20.20;53.40;;;;;;6175587;22;92553;-65
2021/12/05 13:43:56;;;;;;;13.02;2.58;;;20.20;53.40;;;;;;6176340;22;91946;-66
2021/12/05 13:46:34;;;;;;;10.93;2.20;;;20.20;53.50;;;;;;6176244;22;92933;-66
2021/12/05 13:49:21;;;;;;;8.25;2.72;;;20.20;53.50;;;;;;6175408;22;96419;-61
2021/12/05 13:51:46;;;;;;;6.50;2.05;;;20.20;53.40;;;;;;6176339;22;93721;-60
2021/12/05 13:54:24;;;;;;;5.63;2.03;;;20.20;53.50;;;;;;6177182;22;92115;-68
2021/12/05 13:57:06;;;;;;;7.13;2.22;;;20.20;53.50;;;;;;6178348;22;92011;-65
2021/12/05 13:59:31;;;;;;;8.27;2.13;;;20.30;53.60;;;;;;6175720;22;96230;-67
2021/12/05 14:01:57;;;;;;;9.00;2.40;;;20.20;53.50;;;;;;6175165;22;92796;-67
2021/12/05 14:04:27;;;;;;;4.63;1.92;;;20.30;53.60;;;;;;6175650;22;93602;-66
2021/12/05 14:07:04;;;;;;;9.00;2.65;;;20.20;53.50;;;;;;6176834;22;92246;-66
2021/12/05 14:09:48;;;;;;;7.00;1.77;;;20.20;53.60;;;;;;6174498;22;92964;-65
2021/12/05 14:12:24;;;;;;;6.40;2.08;;;20.20;53.60;;;;;;6175100;22;96329;-64
2021/12/05 14:14:51;;;;;;;4.60;1.95;;;20.20;53.70;;;;;;6175463;22;92081;-68
2021/12/05 14:17:29;;;;;;;3.78;2.10;;;20.20;53.70;;;;;;6175836;22;92993;-63
2021/12/05 14:20:03;;;;;;;6.70;2.25;;;20.20;53.70;;;;;;6175485;22;93212;-68
2021/12/05 14:22:33;;;;;;;6.30;2.22;;;20.20;53.80;;;;;;6175189;22;93297;-65
2021/12/05 14:25:03;;;;;;;4.70;1.98;;;20.20;53.80;;;;;;6176151;22;92840;-59
2021/12/05 14:27:36;;;;;;;5.88;2.13;;;20.20;53.80;;;;;;6174038;22;92517;-61
2021/12/05 14:30:08;;;;;;;7.32;2.42;;;20.20;53.90;;;;;;6175476;22;93974;-67
2021/12/05 14:32:40;;;;;;;4.38;1.50;;;20.20;53.90;;;;;;6176634;22;95192;-64
2021/12/05 14:35:10;;;;;;;6.53;2.35;;;20.30;54.20;;;;;;6176477;22;92607;-61
2021/12/05 14:37:38;;;;;;;5.68;2.10;;;20.30;54.40;;;;;;6174832;22;92542;-62
2021/12/05 14:40:08;;;;;;;5.18;2.10;;;20.30;54.40;;;;;;6174148;22;92640;-63
2021/12/05 14:42:35;;;;;;;5.20;2.05;;;20.30;54.50;;;;;;6176164;22;92542;-62
2021/12/05 14:45:10;;;;;;;8.23;2.10;;;20.40;54.50;;;;;;6175806;22;92153;-61
2021/12/05 14:47:37;;;;;;;8.48;1.60;;;20.40;54.50;;;;;;6176172;22;92045;-62
2021/12/05 14:50:13;;;;;;;5.97;2.30;;;20.40;54.40;;;;;;6174888;22;93074;-61
2021/12/05 14:52:42;;;;;;;7.60;1.92;;;20.40;54.40;;;;;;6173952;22;96083;-67
2021/12/05 14:55:10;;;;;;;7.72;2.55;;;20.40;54.40;;;;;;6173808;22;93297;-65
2021/12/05 14:57:51;;;;;;;8.00;2.00;;;20.40;54.40;;;;;;6175691;22;92838;-66
2021/12/05 15:00:29;;;;;;;9.73;2.00;;;20.40;54.40;;;;;;6175295;22;92507;-61
2021/12/05 15:03:04;;;;;;;9.60;2.08;;;20.40;54.40;;;;;;6174887;22;92906;-65
2021/12/05 15:05:32;;;;;;;5.43;1.50;;;20.40;54.50;;;;;;6174000;22;92875;-65
2021/12/05 15:08:05;;;;;;;5.75;1.63;;;20.40;54.50;;;;;;6172200;22;92359;-68
2021/12/05 15:10:31;;;;;;;5.55;2.00;;;20.40;54.50;;;;;;6173483;22;96010;-61
2021/12/05 15:12:57;;;;;;;5.75;2.00;;;20.40;54.50;;;;;;6175833;22;92878;-61
2021/12/05 15:15:25;;;;;;;3.80;1.42;;;20.40;54.50;;;;;;6175573;22;92091;-67
2021/12/05 15:17:53;;;;;;;8.55;2.08;;;20.40;54.50;;;;;;6175796;22;92843;-62
2021/12/05 15:20:21;;;;;;;3.63;1.70;;;20.40;54.50;;;;;;6173085;22;94140;-68
2021/12/05 15:22:54;;;;;;;6.88;1.80;;;20.40;54.60;;;;;;6174072;22;93778;-64
2021/12/05 15:25:24;;;;;;;5.80;1.65;;;20.40;54.70;;;;;;6173627;22;92605;-61
2021/12/05 15:27:50;;;;;;;4.78;1.73;;;20.30;54.70;;;;;;6171861;22;93150;-59
2021/12/05 15:30:25;;;;;;;4.85;1.90;;;20.30;54.70;;;;;;6174024;22;92598;-66
2021/12/05 15:33:01;;;;;;;4.15;1.63;;;20.30;55.00;;;;;;6173239;22;93806;-66
2021/12/05 15:35:28;;;;;;;6.28;1.73;;;20.20;55.10;;;;;;6174623;22;92622;-62
2021/12/05 15:38:01;;;;;;;4.97;1.58;;;20.20;55.20;;;;;;6174889;22;91679;-68
2021/12/05 15:40:30;;;;;;;7.57;1.95;;;20.20;55.40;;;;;;6173150;22;95323;-65
2021/12/05 15:43:05;;;;;;;3.03;1.42;;;20.20;55.40;;;;;;6174174;22;92784;-67
2021/12/05 15:45:32;;;;;;;8.35;2.53;;;20.20;55.50;;;;;;6175585;22;93598;-63
2021/12/05 15:47:58;;;;;;;7.00;1.98;;;20.20;55.90;;;;;;6176154;22;92486;-59
2021/12/05 15:50:30;;;;;;;4.90;1.80;;;20.20;56.00;;;;;;6172751;22;92734;-68
2021/12/05 15:53:12;;;;;;;8.77;2.30;;;20.20;56.10;;;;;;6170759;22;95903;-66
2021/12/05 15:55:43;;;;;;;4.18;1.95;;;20.20;56.20;;;;;;6173556;22;92962;-61
2021/12/05 15:58:20;;;;;;;6.95;2.30;;;20.20;56.20;;;;;;6172127;22;92777;-60
2021/12/05 16:01:05;;;;;;;3.72;1.70;;;20.20;56.20;;;;;;6173307;22;94180;-63
2021/12/05 16:03:38;;;;;;;8.05;2.35;;;20.20;56.20;;;;;;6171756;22;93319;-60
2021/12/05 16:06:04;;;;;;;4.65;1.73;;;20.20;56.40;;;;;;6172778;22;92372;-64
2021/12/05 16:08:32;;;;;;;6.28;1.90;;;20.20;56.30;;;;;;6172723;22;92560;-63
2021/12/05 16:10:59;;;;;;;4.55;1.55;;;20.20;56.20;;;;;;6170655;22;94031;-62
2021/12/05 16:13:38;;;;;;;5.72;2.15;;;20.20;56.20;;;;;;6172336;22;93482;-64
2021/12/05 16:16:16;;;;;;;7.18;1.88;;;20.20;56.20;;;;;;6172926;22;92453;-69
2021/12/05 16:18:45;;;;;;;7.10;1.70;;;20.20;56.30;;;;;;6172772;22;92905;-66
2021/12/05 16:21:26;;;;;;;4.30;1.80;;;20.20;56.20;;;;;;6170723;22;96776;-60
2021/12/05 16:23:52;;;;;;;5.65;2.08;;;20.20;56.20;;;;;;6171679;22;92648;-66
2021/12/05 16:26:26;;;;;;;6.38;1.70;;;20.20;56.20;;;;;;6172008;22;92765;-60
2021/12/05 16:28:56;;;;;;;5.72;1.90;;;20.20;56.20;;;;;;6170712;22;92166;-66
2021/12/05 16:31:43;;;;;;;3.60;1.75;;;20.20;56.20;;;;;;6172716;22;93738;-68
2021/12/05 16:34:13;;;;;;;6.18;1.70;;;20.20;56.20;;;;;;6172025;22;92538;-64
2021/12/05 16:36:52;;;;;;;4.63;2.08;;;20.20;56.10;;;;;;6171696;22;93803;-63
2021/12/05 16:39:28;;;;;;;5.57;2.13;;;20.20;56.10;;;;;;6171967;22;92196;-62
2021/12/05 16:41:57;;;;;;;6.82;1.90;;;20.20;56.10;;;;;;6171464;22;93785;-59
2021/12/05 16:44:27;;;;;;;6.05;2.38;;;20.20;56.10;;;;;;6171773;22;94372;-59
2021/12/05 16:46:59;;;;;;;5.03;2.08;;;20.10;56.10;;;;;;6170756;22;92667;-67
2021/12/05 16:49:32;;;;;;;3.13;1.50;;;20.10;56.10;;;;;;6170115;22;93145;-69
2021/12/05 16:52:04;;;;;;;5.87;2.17;;;20.10;56.20;;;;;;6169265;22;96092;-67
2021/12/05 16:54:34;;;;;;;4.65;1.67;;;20.10;56.20;;;;;;6172810;22;92224;-65
2021/12/05 16:57:11;;;;;;;5.00;1.70;;;20.10;56.20;;;;;;6172887;22;92754;-68
2021/12/05 16:59:36;;;;;;;3.35;1.92;;;20.10;56.20;;;;;;6171732;22;93085;-70
2021/12/05 17:02:11;;;;;;;7.22;1.80;;;20.10;56.30;;;;;;6168412;22;93981;-66
2021/12/05 17:04:49;;;;;;;9.10;2.20;;;20.10;56.40;;;;;;6169767;22;93648;-65
2021/12/05 17:07:32;;;;;;;6.25;2.00;;;20.10;56.60;;;;;;6171223;22;92464;-67
2021/12/05 17:09:58;;;;;;;;;;;20.10;57.20;;;;;;6171135;22;93148;-61
2021/12/05 17:12:26;;;;;;;8.48;2.58;;;20.10;56.70;;;;;;6172273;22;93564;-67
2021/12/05 17:15:19;;;;;;;8.82;2.83;;;20.10;56.90;;;;;;6169483;22;92625;-66
2021/12/05 17:17:46;;;;;;;5.57;2.15;;;20.20;57.30;;;;;;6170645;22;92112;-68
2021/12/05 17:20:21;;;;;;;11.48;2.65;;;20.20;56.90;;;;;;6171618;22;91884;-64
2021/12/05 17:22:58;;;;;;;6.82;2.10;;;20.20;57.30;;;;;;6168153;22;92522;-67
2021/12/05 17:25:36;;;;;;;9.07;2.00;;;20.20;56.60;;;;;;6170637;22;92318;-64
2021/12/05 17:28:06;;;;;;;7.53;2.42;;;20.20;56.50;;;;;;6170717;22;93398;-68
2021/12/05 17:30:33;;;;;;;10.35;2.00;;;20.20;56.50;;;;;;6172709;22;93174;-70
2021/12/05 17:32:59;;;;;;;6.65;2.40;;;20.20;56.40;;;;;;6170741;22;95554;-63
2021/12/05 17:35:30;;;;;;;5.90;2.17;;;20.20;56.30;;;;;;6171320;22;93647;-65
2021/12/05 17:37:57;;;;;;;10.80;1.95;;;20.20;56.20;;;;;;6172170;22;92428;-69
2021/12/05 17:40:26;;;;;;;9.60;2.25;;;20.20;56.20;;;;;;6171774;22;92509;-68
2021/12/05 17:42:52;;;;;;;6.72;1.90;;;20.20;56.20;;;;;;6171463;22;93040;-60
2021/12/05 17:45:17;;;;;;;7.05;2.35;;;20.20;56.20;;;;;;6172418;22;92807;-65
2021/12/05 17:47:44;;;;;;;5.50;2.17;;;20.20;56.20;;;;;;6170999;22;92189;-65
2021/12/05 17:50:16;;;;;;;9.25;2.25;;;20.20;56.20;;;;;;6171675;22;92912;-59
2021/12/05 17:52:45;;;;;;;5.27;2.07;;;20.20;56.10;;;;;;6169752;22;93682;-63
2021/12/05 17:55:26;;;;;;;5.53;2.22;;;20.20;56.10;;;;;;6171190;22;93230;-63
2021/12/05 17:58:01;;;;;;;7.70;2.55;;;20.10;55.90;;;;;;6172726;22;92625;-64
2021/12/05 18:00:37;;;;;;;8.75;2.25;;;20.20;56.00;;;;;;6171961;22;92498;-61
2021/12/05 18:03:12;;;;;;;8.63;2.30;;;20.20;55.90;;;;;;6171334;22;92977;-70
2021/12/05 18:05:42;;;;;;;7.72;2.70;;;20.20;55.80;;;;;;6171208;22;92835;-63
2021/12/05 18:08:13;;;;;;;7.63;2.67;;;20.20;55.70;;;;;;6172148;22;93051;-69
2021/12/05 18:10:51;;;;;;;8.27;2.72;;;20.20;55.50;;;;;;6171196;22;92019;-69
2021/12/05 18:13:23;;;;;;;7.03;1.92;;;20.30;55.50;;;;;;6169251;22;93994;-65
2021/12/05 18:15:57;;;;;;;5.82;2.63;;;20.30;55.30;;;;;;6170832;22;93015;-68
2021/12/05 18:18:26;;;;;;;8.35;2.80;;;20.30;55.30;;;;;;6169374;22;93823;-68
2021/12/05 18:20:52;;;;;;;4.65;2.55;;;20.30;55.60;;;;;;6171361;22;92175;-59
2021/12/05 18:23:18;;;;;;;5.28;2.60;;;20.30;55.00;;;;;;6171529;22;93413;-68
2021/12/05 18:25:45;;;;;;;6.97;2.60;;;20.30;55.00;;;;;;6171172;22;92259;-68
2021/12/05 18:28:11;;;;;;;5.57;2.97;;;20.30;54.90;;;;;;6171255;22;92673;-65
2021/12/05 18:30:38;;;;;;;8.05;2.83;;;20.30;54.90;;;;;;6171242;22;92757;-62